Time;durP1;ratioP1;P1;durP2;ratioP2;P2;SDS_P1;SDS_P2;PMS_P1;PMS_P2;Temp;Humidity;BMP_temperature;BMP_pressure;BME280_temperature;BME280_humidity;BME280_pressure;Samples;Min_cycle;Max_cycle;Signal;HPM_P1;HPM_P2
2023/10/29 00:01:56;;;;;;;6.50;3.03;;;;;;;;;;5064562;28;20078;-86
2023/10/29 00:04:41;;;;;;;6.75;3.38;;;;;;;;;;5068957;28;20099;-86
2023/10/29 00:07:26;;;;;;;10.88;3.45;;;;;;;;;;5064976;28;20497;-86
2023/10/29 00:10:11;;;;;;;6.32;3.30;;;;;;;;;;5063705;28;20394;-85
2023/10/29 00:12:57;;;;;;;8.90;3.65;;;;;;;;;;5062799;28;20056;-86
2023/10/29 00:15:42;;;;;;;13.25;3.83;;;;;;;;;;5064353;28;20088;-86
2023/10/29 00:18:27;;;;;;;5.88;3.00;;;;;;;;;;5067273;28;20020;-84
2023/10/29 00:21:12;;;;;;;9.70;3.05;;;;;;;;;;5067516;28;20558;-87
2023/10/29 00:23:58;;;;;;;5.53;3.10;;;;;;;;;;5070897;28;20066;-86
2023/10/29 00:26:43;;;;;;;8.55;3.28;;;;;;;;;;5048117;28;20032;-86
2023/10/29 00:29:28;;;;;;;4.47;2.63;;;;;;;;;;5070282;28;20442;-86
2023/10/29 00:32:15;;;;;;;7.15;2.85;;;;;;;;;;5068968;28;20555;-88
2023/10/29 00:35:01;;;;;;;11.00;3.90;;;;;;;;;;5060332;28;20569;-86
2023/10/29 00:37:46;;;;;;;7.45;3.47;;;;;;;;;;5069102;28;20378;-89
2023/10/29 00:40:31;;;;;;;10.15;3.20;;;;;;;;;;5071794;28;20054;-90
2023/10/29 00:43:16;;;;;;;9.32;4.25;;;;;;;;;;5065299;28;20662;-89
2023/10/29 00:46:02;;;;;;;5.80;2.85;;;;;;;;;;5072842;28;20533;-89
2023/10/29 00:48:48;;;;;;;5.90;2.63;;;;;;;;;;5075292;28;20039;-90
2023/10/29 00:51:33;;;;;;;5.90;2.75;;;;;;;;;;5071509;28;20090;-90
2023/10/29 00:54:18;;;;;;;5.95;2.90;;;;;;;;;;5070484;28;20059;-91
2023/10/29 00:57:03;;;;;;;6.45;2.67;;;;;;;;;;5072026;28;20118;-91
2023/10/29 00:59:49;;;;;;;5.60;2.83;;;;;;;;;;5062865;28;20028;-90
2023/10/29 01:02:34;;;;;;;5.07;2.97;;;;;;;;;;5058154;28;20016;-87
2023/10/29 01:05:19;;;;;;;9.88;3.13;;;;;;;;;;5071980;28;20070;-87
2023/10/29 01:08:07;;;;;;;7.07;3.42;;;;;;;;;;5063671;28;20135;-89
2023/10/29 01:10:53;;;;;;;4.93;2.47;;;;;;;;;;5057506;28;20063;-86
2023/10/29 01:13:38;;;;;;;7.55;3.10;;;;;;;;;;5062613;28;20522;-89
2023/10/29 01:16:24;;;;;;;8.57;3.15;;;;;;;;;;5063131;28;20036;-89
2023/10/29 01:19:09;;;;;;;6.35;2.92;;;;;;;;;;5062203;28;20040;-88
2023/10/29 01:21:54;;;;;;;5.95;3.03;;;;;;;;;;5056546;28;20041;-88
2023/10/29 01:24:40;;;;;;;5.70;3.40;;;;;;;;;;5059780;28;20504;-88
2023/10/29 01:27:26;;;;;;;7.40;2.88;;;;;;;;;;5058773;28;20506;-90
2023/10/29 01:30:12;;;;;;;4.43;2.28;;;;;;;;;;5066474;28;20052;-89
2023/10/29 01:32:59;;;;;;;4.22;2.08;;;;;;;;;;5066167;28;20024;-88
2023/10/29 01:35:44;;;;;;;4.43;2.67;;;;;;;;;;5062334;28;20032;-87
2023/10/29 01:38:29;;;;;;;7.10;2.97;;;;;;;;;;5059351;28;20094;-88
2023/10/29 01:41:14;;;;;;;5.78;2.45;;;;;;;;;;5060137;28;20029;-88
2023/10/29 01:44:00;;;;;;;5.68;2.30;;;;;;;;;;5065763;28;20596;-89
2023/10/29 01:46:46;;;;;;;6.25;2.22;;;;;;;;;;5061802;28;20035;-88
2023/10/29 01:49:31;;;;;;;7.05;2.20;;;;;;;;;;5056182;28;20441;-89
2023/10/29 01:52:16;;;;;;;6.80;2.47;;;;;;;;;;5058005;28;20055;-87
2023/10/29 01:55:02;;;;;;;6.45;2.58;;;;;;;;;;5065723;28;20028;-88
2023/10/29 01:57:47;;;;;;;8.40;2.40;;;;;;;;;;5062210;28;20435;-90
2023/10/29 02:00:32;;;;;;;5.07;2.33;;;;;;;;;;5060936;28;20108;-89
2023/10/29 02:03:17;;;;;;;4.57;2.00;;;;;;;;;;5055695;28;20029;-88
2023/10/29 02:06:03;;;;;;;3.25;2.33;;;;;;;;;;5064115;28;20031;-89
2023/10/29 02:08:48;;;;;;;9.02;2.50;;;;;;;;;;5051043;28;20120;-88
2023/10/29 02:11:33;;;;;;;3.90;1.90;;;;;;;;;;5065814;28;20532;-88
2023/10/29 02:14:19;;;;;;;3.60;1.90;;;;;;;;;;5043605;28;20029;-87
2023/10/29 02:17:04;;;;;;;3.55;1.60;;;;;;;;;;5049054;28;20032;-86
2023/10/29 02:19:49;;;;;;;5.13;2.50;;;;;;;;;;5046210;28;20035;-87
2023/10/29 02:22:35;;;;;;;5.32;2.30;;;;;;;;;;5046237;28;20032;-86
2023/10/29 02:25:21;;;;;;;5.63;1.92;;;;;;;;;;5053194;28;20055;-87
2023/10/29 02:28:07;;;;;;;5.00;2.00;;;;;;;;;;5043161;28;20362;-86
2023/10/29 02:30:52;;;;;;;7.30;2.30;;;;;;;;;;5060104;28;20034;-86
2023/10/29 02:33:37;;;;;;;4.60;2.60;;;;;;;;;;5073104;28;20099;-82
2023/10/29 02:36:22;;;;;;;3.70;2.03;;;;;;;;;;5069570;28;20032;-86
2023/10/29 02:39:08;;;;;;;3.15;1.90;;;;;;;;;;5063913;28;20031;-85
2023/10/29 02:41:53;;;;;;;5.28;1.70;;;;;;;;;;5060400;28;20037;-84
2023/10/29 02:44:41;;;;;;;4.35;2.30;;;;;;;;;;5083340;28;20044;-89
2023/10/29 02:47:26;;;;;;;8.80;2.53;;;;;;;;;;5081265;28;20497;-89
2023/10/29 02:50:12;;;;;;;5.32;2.03;;;;;;;;;;5055277;28;20481;-90
2023/10/29 02:52:57;;;;;;;6.05;2.10;;;;;;;;;;5054492;28;20550;-89
2023/10/29 02:55:42;;;;;;;3.75;2.17;;;;;;;;;;5051384;28;20047;-91
2023/10/29 02:58:27;;;;;;;5.18;2.00;;;;;;;;;;5048074;28;20407;-90
2023/10/29 03:01:15;;;;;;;4.75;2.00;;;;;;;;;;5046930;28;20616;-89
2023/10/29 03:04:02;;;;;;;6.40;3.00;;;;;;;;;;5054419;28;20098;-89
2023/10/29 03:06:47;;;;;;;7.90;2.10;;;;;;;;;;5053087;28;20111;-90
2023/10/29 03:09:32;;;;;;;3.95;2.17;;;;;;;;;;5049521;28;20138;-90
2023/10/29 03:12:18;;;;;;;4.35;1.98;;;;;;;;;;5047130;28;20131;-89
2023/10/29 03:15:03;;;;;;;4.30;1.80;;;;;;;;;;5026299;28;20086;-89
2023/10/29 03:17:48;;;;;;;4.82;1.73;;;;;;;;;;5036175;28;20029;-91
2023/10/29 03:20:33;;;;;;;3.58;1.75;;;;;;;;;;5033610;28;20025;-91
2023/10/29 03:23:19;;;;;;;5.00;2.00;;;;;;;;;;5014547;28;20545;-87
2023/10/29 03:26:04;;;;;;;2.88;1.83;;;;;;;;;;5029904;28;20029;-88
2023/10/29 03:28:50;;;;;;;4.88;2.03;;;;;;;;;;5021424;28;20029;-87
2023/10/29 03:31:37;;;;;;;3.72;1.95;;;;;;;;;;5030714;28;20032;-88
2023/10/29 03:34:22;;;;;;;6.20;1.67;;;;;;;;;;5031041;28;20132;-88
2023/10/29 03:37:07;;;;;;;3.58;2.00;;;;;;;;;;5031611;28;20032;-88
2023/10/29 03:39:52;;;;;;;6.25;2.33;;;;;;;;;;5031890;28;20590;-88
2023/10/29 03:42:38;;;;;;;6.03;1.95;;;;;;;;;;5027635;28;20071;-88
2023/10/29 03:45:41;;;;;;;4.63;2.03;;;;;;;;;;5032171;28;20037;-88
2023/10/29 03:48:26;;;;;;;5.05;1.77;;;;;;;;;;5015993;28;20464;-88
2023/10/29 03:51:12;;;;;;;3.22;1.70;;;;;;;;;;5029651;28;20057;-87
2023/10/29 03:53:57;;;;;;;6.28;1.90;;;;;;;;;;5023457;28;20079;-90
2023/10/29 03:56:43;;;;;;;3.92;1.80;;;;;;;;;;5027780;28;20116;-90
2023/10/29 03:59:28;;;;;;;6.13;2.00;;;;;;;;;;5028376;28;20024;-89
2023/10/29 04:02:13;;;;;;;5.13;1.67;;;;;;;;;;5028923;28;20024;-88
2023/10/29 04:04:59;;;;;;;4.70;2.03;;;;;;;;;;5032178;28;20079;-90
2023/10/29 04:07:44;;;;;;;4.00;1.80;;;;;;;;;;5026938;28;20060;-88
2023/10/29 04:10:29;;;;;;;5.72;2.20;;;;;;;;;;5030647;28;20027;-89
2023/10/29 04:13:14;;;;;;;5.90;2.35;;;;;;;;;;5066815;28;20052;-89
2023/10/29 04:15:59;;;;;;;4.93;1.80;;;;;;;;;;5069710;28;20027;-91
2023/10/29 04:18:45;;;;;;;3.55;1.58;;;;;;;;;;5063918;28;20135;-90
2023/10/29 04:21:30;;;;;;;3.15;1.60;;;;;;;;;;5070986;28;20022;-88
2023/10/29 04:24:15;;;;;;;4.95;1.65;;;;;;;;;;5063464;28;20040;-89
2023/10/29 04:27:00;;;;;;;2.40;1.63;;;;;;;;;;5066178;28;20058;-88
2023/10/29 04:29:46;;;;;;;2.78;1.38;;;;;;;;;;5069063;28;20059;-88
2023/10/29 04:32:31;;;;;;;5.07;1.95;;;;;;;;;;5077579;28;20031;-87
2023/10/29 04:35:17;;;;;;;5.28;2.13;;;;;;;;;;5068210;28;20028;-87
2023/10/29 04:38:02;;;;;;;6.10;2.03;;;;;;;;;;5060447;28;20395;-88
2023/10/29 04:40:47;;;;;;;5.18;2.17;;;;;;;;;;5066792;28;20099;-87
2023/10/29 04:43:32;;;;;;;5.63;1.90;;;;;;;;;;5069709;28;20232;-86
2023/10/29 04:46:18;;;;;;;4.25;1.73;;;;;;;;;;5069676;28;20027;-86
2023/10/29 04:49:04;;;;;;;4.25;1.80;;;;;;;;;;5066778;28;20020;-88
2023/10/29 04:51:50;;;;;;;5.25;3.03;;;;;;;;;;5069109;28;20020;-88
2023/10/29 04:54:36;;;;;;;5.80;2.17;;;;;;;;;;5066965;28;20169;-88
2023/10/29 04:57:22;;;;;;;5.43;1.50;;;;;;;;;;5074854;28;20124;-86
2023/10/29 05:00:08;;;;;;;2.20;1.65;;;;;;;;;;5067714;28;20065;-87
2023/10/29 05:02:54;;;;;;;4.30;1.40;;;;;;;;;;5070239;28;20024;-88
2023/10/29 05:05:39;;;;;;;4.20;1.70;;;;;;;;;;5069303;28;20020;-89
2023/10/29 05:08:24;;;;;;;4.22;2.00;;;;;;;;;;5072068;28;20445;-89
2023/10/29 05:11:10;;;;;;;3.80;1.95;;;;;;;;;;5065824;28;20093;-87
2023/10/29 05:13:55;;;;;;;4.60;1.48;;;;;;;;;;5070806;28;20446;-90
2023/10/29 05:16:40;;;;;;;2.65;1.33;;;;;;;;;;5070297;28;20394;-86
2023/10/29 05:19:25;;;;;;;6.03;1.98;;;;;;;;;;5065354;28;20057;-87
2023/10/29 05:22:11;;;;;;;6.75;1.60;;;;;;;;;;5068030;28;20022;-87
2023/10/29 05:24:56;;;;;;;4.30;1.65;;;;;;;;;;5053951;28;20066;-87
2023/10/29 05:27:51;;;;;;;4.47;1.60;;;;;;;;;;5070893;28;20111;-87
2023/10/29 05:30:36;;;;;;;4.35;1.80;;;;;;;;;;5063673;28;20093;-88
2023/10/29 05:33:21;;;;;;;3.88;1.80;;;;;;;;;;5067940;28;20254;-87
2023/10/29 05:36:07;;;;;;;3.95;1.35;;;;;;;;;;5073040;28;20035;-90
2023/10/29 05:38:52;;;;;;;2.67;1.00;;;;;;;;;;5066200;28;20029;-88
2023/10/29 05:41:37;;;;;;;2.75;1.30;;;;;;;;;;5071615;28;20495;-90
2023/10/29 05:44:22;;;;;;;4.72;1.50;;;;;;;;;;5071318;28;20073;-89
2023/10/29 05:47:07;;;;;;;4.20;1.52;;;;;;;;;;5063240;28;20028;-89
2023/10/29 05:49:56;;;;;;;5.28;3.10;;;;;;;;;;5071020;28;20064;-90
2023/10/29 05:52:42;;;;;;;3.00;1.27;;;;;;;;;;5067707;28;20040;-88
2023/10/29 05:55:27;;;;;;;4.22;1.73;;;;;;;;;;5069504;28;20036;-88
2023/10/29 05:58:12;;;;;;;2.50;1.30;;;;;;;;;;5074580;28;20031;-89
2023/10/29 06:00:57;;;;;;;3.00;1.27;;;;;;;;;;5066630;28;20039;-89
2023/10/29 06:03:43;;;;;;;6.22;1.40;;;;;;;;;;5071542;28;20020;-88
2023/10/29 06:06:28;;;;;;;5.20;1.77;;;;;;;;;;5069414;28;20132;-89
2023/10/29 06:09:13;;;;;;;3.22;1.48;;;;;;;;;;5060364;28;20263;-88
2023/10/29 06:11:58;;;;;;;2.83;1.20;;;;;;;;;;5053427;28;20040;-87
2023/10/29 06:14:45;;;;;;;2.67;1.70;;;;;;;;;;5067797;28;20023;-87
2023/10/29 06:17:30;;;;;;;4.30;1.58;;;;;;;;;;5061961;28;20043;-87
2023/10/29 06:20:18;;;;;;;4.22;1.70;;;;;;;;;;5060159;28;20094;-86
2023/10/29 06:23:03;;;;;;;2.40;1.60;;;;;;;;;;5053547;28;20032;-88
2023/10/29 06:25:49;;;;;;;2.80;1.50;;;;;;;;;;5071547;28;20016;-88
2023/10/29 06:28:34;;;;;;;6.07;2.13;;;;;;;;;;5067816;28;20035;-90
2023/10/29 06:31:26;;;;;;;3.90;2.00;;;;;;;;;;5062580;28;20479;-91
2023/10/29 06:34:11;;;;;;;5.15;1.92;;;;;;;;;;5069396;28;20036;-90
2023/10/29 06:36:57;;;;;;;2.85;1.50;;;;;;;;;;5075686;28;20093;-90
2023/10/29 06:39:42;;;;;;;2.60;1.48;;;;;;;;;;5064782;28;20024;-88
2023/10/29 06:42:27;;;;;;;2.10;1.35;;;;;;;;;;5070663;28;20028;-89
2023/10/29 06:45:14;;;;;;;3.00;1.77;;;;;;;;;;5069186;28;20382;-88
2023/10/29 06:47:59;;;;;;;5.45;2.08;;;;;;;;;;5074301;28;20132;-88
2023/10/29 06:50:44;;;;;;;6.80;2.22;;;;;;;;;;5077204;28;20066;-88
2023/10/29 06:53:29;;;;;;;6.57;2.63;;;;;;;;;;5070445;28;20033;-87
2023/10/29 06:56:15;;;;;;;5.10;1.63;;;;;;;;;;5071143;28;20024;-87
2023/10/29 06:59:00;;;;;;;4.72;1.67;;;;;;;;;;5069756;28;20032;-87
2023/10/29 07:01:47;;;;;;;3.42;1.17;;;;;;;;;;5073412;28;20054;-86
2023/10/29 07:04:32;;;;;;;4.18;1.90;;;;;;;;;;5067631;28;20020;-86
2023/10/29 07:07:18;;;;;;;4.80;1.50;;;;;;;;;;5067176;28;20024;-87
2023/10/29 07:10:04;;;;;;;5.32;2.47;;;;;;;;;;5075224;28;20024;-86
2023/10/29 07:12:49;;;;;;;4.65;1.83;;;;;;;;;;5071138;28;20055;-87
2023/10/29 07:15:34;;;;;;;2.55;1.48;;;;;;;;;;5070822;28;20433;-88
2023/10/29 07:18:19;;;;;;;9.50;1.80;;;;;;;;;;5072001;28;20467;-89
2023/10/29 07:21:05;;;;;;;5.57;1.88;;;;;;;;;;5070239;28;20020;-85
2023/10/29 07:23:53;;;;;;;5.65;1.80;;;;;;;;;;5063483;28;20170;-80
2023/10/29 07:26:39;;;;;;;4.30;1.70;;;;;;;;;;5048036;28;20092;-80
2023/10/29 07:29:24;;;;;;;4.80;1.90;;;;;;;;;;5065748;28;20386;-80
2023/10/29 07:32:09;;;;;;;3.45;1.90;;;;;;;;;;5059522;28;20398;-80
2023/10/29 07:34:55;;;;;;;3.67;1.92;;;;;;;;;;5065312;28;20542;-81
2023/10/29 07:37:40;;;;;;;6.45;2.35;;;;;;;;;;5056942;28;20035;-78
2023/10/29 07:40:25;;;;;;;3.97;1.70;;;;;;;;;;5069154;28;20246;-80
2023/10/29 07:43:10;;;;;;;2.83;1.50;;;;;;;;;;5061520;28;20538;-78
2023/10/29 07:46:02;;;;;;;3.03;1.50;;;;;;;;;;5069319;28;20497;-78
2023/10/29 07:48:48;;;;;;;4.18;1.50;;;;;;;;;;5069708;28;20024;-79
2023/10/29 07:51:33;;;;;;;7.25;2.08;;;;;;;;;;5060519;28;20028;-78
2023/10/29 07:54:18;;;;;;;7.32;2.38;;;;;;;;;;5071608;28;20485;-77
2023/10/29 07:57:04;;;;;;;6.55;1.80;;;;;;;;;;5067189;28;20472;-77
2023/10/29 07:59:49;;;;;;;4.63;1.95;;;;;;;;;;5068882;28;20020;-77
2023/10/29 08:02:34;;;;;;;4.97;1.60;;;;;;;;;;5071351;28;20406;-77
2023/10/29 08:05:19;;;;;;;3.83;1.83;;;;;;;;;;5064767;28;20474;-78
2023/10/29 08:08:05;;;;;;;7.80;2.85;;;;;;;;;;5069319;28;20024;-78
2023/10/29 08:10:51;;;;;;;5.18;2.13;;;;;;;;;;5067705;28;20532;-78
2023/10/29 08:13:36;;;;;;;4.30;2.13;;;;;;;;;;5072570;28;20080;-79
2023/10/29 08:16:21;;;;;;;7.32;2.60;;;;;;;;;;5067223;28;20050;-80
2023/10/29 08:19:07;;;;;;;3.97;1.80;;;;;;;;;;5075669;28;20034;-79
2023/10/29 08:21:53;;;;;;;3.53;1.70;;;;;;;;;;5076023;28;20032;-80
2023/10/29 08:24:39;;;;;;;2.97;1.45;;;;;;;;;;5060948;28;20486;-80
2023/10/29 08:27:25;;;;;;;1.98;1.10;;;;;;;;;;5063140;28;20372;-79
2023/10/29 08:30:10;;;;;;;4.55;2.22;;;;;;;;;;5065172;28;20027;-79
2023/10/29 08:32:56;;;;;;;5.60;1.20;;;;;;;;;;5054119;28;20062;-80
2023/10/29 08:35:44;;;;;;;3.95;1.10;;;;;;;;;;5069699;28;20028;-79
2023/10/29 08:38:29;;;;;;;5.38;1.65;;;;;;;;;;5068696;28;20081;-80
2023/10/29 08:41:15;;;;;;;3.45;1.55;;;;;;;;;;5064506;28;20409;-79
2023/10/29 08:44:00;;;;;;;3.53;1.42;;;;;;;;;;5069944;28;20537;-79
2023/10/29 08:46:46;;;;;;;1.98;1.08;;;;;;;;;;5058370;28;20024;-81
2023/10/29 08:49:31;;;;;;;6.43;1.40;;;;;;;;;;5067195;28;20416;-79
2023/10/29 08:52:17;;;;;;;2.60;1.38;;;;;;;;;;5074367;28;20038;-79
2023/10/29 08:55:03;;;;;;;3.47;1.33;;;;;;;;;;5060018;28;20090;-79
2023/10/29 08:57:49;;;;;;;3.05;1.45;;;;;;;;;;5069403;28;20111;-80
2023/10/29 09:00:34;;;;;;;5.90;1.40;;;;;;;;;;5064946;28;20088;-80
2023/10/29 09:03:20;;;;;;;3.00;1.20;;;;;;;;;;5065118;28;20023;-80
2023/10/29 09:06:05;;;;;;;2.13;1.35;;;;;;;;;;5069169;28;20107;-79
2023/10/29 09:08:51;;;;;;;5.85;1.08;;;;;;;;;;5059336;28;20029;-78
2023/10/29 09:11:36;;;;;;;2.05;1.10;;;;;;;;;;5067028;28;20368;-81
2023/10/29 09:14:22;;;;;;;2.38;1.38;;;;;;;;;;5066596;28;20044;-80
2023/10/29 09:17:07;;;;;;;6.22;1.60;;;;;;;;;;5067552;28;20035;-78
2023/10/29 09:19:52;;;;;;;4.93;1.83;;;;;;;;;;5066280;28;20025;-79
2023/10/29 09:22:37;;;;;;;3.40;1.35;;;;;;;;;;5067980;28;20035;-80
2023/10/29 09:25:23;;;;;;;3.38;1.55;;;;;;;;;;5064659;28;20032;-87
2023/10/29 09:28:08;;;;;;;2.58;1.40;;;;;;;;;;5070848;28;20113;-85
2023/10/29 09:30:53;;;;;;;4.00;1.75;;;;;;;;;;5066913;28;20043;-83
2023/10/29 09:33:39;;;;;;;2.35;1.55;;;;;;;;;;5062036;28;20033;-83
2023/10/29 09:36:24;;;;;;;3.65;1.20;;;;;;;;;;5067415;28;20052;-84
2023/10/29 09:39:10;;;;;;;2.35;1.63;;;;;;;;;;5073242;28;20042;-84
2023/10/29 09:41:59;;;;;;;3.35;1.92;;;;;;;;;;5068460;28;20056;-84
2023/10/29 09:44:45;;;;;;;4.28;1.60;;;;;;;;;;5066139;28;20370;-84
2023/10/29 09:47:31;;;;;;;6.60;3.00;;;;;;;;;;5056658;28;20074;-83
2023/10/29 09:50:16;;;;;;;4.22;1.77;;;;;;;;;;5074647;28;20124;-84
2023/10/29 09:53:03;;;;;;;4.50;1.60;;;;;;;;;;5073445;28;20020;-84
2023/10/29 09:55:48;;;;;;;2.17;1.35;;;;;;;;;;5070000;28;20032;-85
2023/10/29 09:58:35;;;;;;;3.88;1.40;;;;;;;;;;5066556;28;20012;-84
2023/10/29 10:01:20;;;;;;;5.82;2.20;;;;;;;;;;5073166;28;20107;-84
2023/10/29 10:04:06;;;;;;;2.38;1.23;;;;;;;;;;5070050;28;20093;-84
2023/10/29 10:06:51;;;;;;;1.73;1.50;;;;;;;;;;5076881;28;20612;-84
2023/10/29 10:09:49;;;;;;;3.47;1.75;;;;;;;;;;5070932;28;20055;-85
2023/10/29 10:12:44;;;;;;;4.65;1.85;;;;;;;;;;5069142;28;20052;-84
2023/10/29 10:15:29;;;;;;;3.97;1.92;;;;;;;;;;5068017;28;20035;-85
2023/10/29 10:18:14;;;;;;;3.95;1.65;;;;;;;;;;5076573;28;20751;-85
2023/10/29 10:21:00;;;;;;;5.10;1.67;;;;;;;;;;5062447;28;20040;-85
2023/10/29 10:23:49;;;;;;;2.25;1.35;;;;;;;;;;5063475;28;20101;-85
2023/10/29 10:26:35;;;;;;;7.25;2.25;;;;;;;;;;5066807;28;20030;-82
2023/10/29 10:29:20;;;;;;;3.85;2.15;;;;;;;;;;5076640;28;20497;-85
2023/10/29 10:32:06;;;;;;;3.78;1.50;;;;;;;;;;5063675;28;20032;-84
2023/10/29 10:34:51;;;;;;;2.00;1.42;;;;;;;;;;5062283;28;20025;-83
2023/10/29 10:37:50;;;;;;;3.90;2.17;;;;;;;;;;5082088;28;20062;-79
2023/10/29 10:40:36;;;;;;;4.10;1.90;;;;;;;;;;5076513;28;20092;-84
2023/10/29 10:43:22;;;;;;;3.92;1.80;;;;;;;;;;5064999;28;20473;-88
2023/10/29 10:46:08;;;;;;;3.42;1.70;;;;;;;;;;5085250;28;20013;-85
2023/10/29 10:48:53;;;;;;;9.77;1.77;;;;;;;;;;5088294;28;20016;-84
2023/10/29 10:51:39;;;;;;;3.25;1.70;;;;;;;;;;5074848;28;20078;-83
2023/10/29 10:54:25;;;;;;;4.05;1.90;;;;;;;;;;5071059;28;20390;-85
2023/10/29 10:57:10;;;;;;;5.20;1.83;;;;;;;;;;5069314;28;20032;-84
2023/10/29 10:59:59;;;;;;;4.68;2.38;;;;;;;;;;5079530;28;20019;-84
2023/10/29 11:02:45;;;;;;;2.75;1.52;;;;;;;;;;5063583;28;20054;-84
2023/10/29 11:05:32;;;;;;;7.65;2.78;;;;;;;;;;5066937;28;20043;-85
2023/10/29 11:08:18;;;;;;;3.72;2.10;;;;;;;;;;5073981;28;20016;-84
2023/10/29 11:11:04;;;;;;;3.63;1.90;;;;;;;;;;5069216;28;20035;-84
2023/10/29 11:13:50;;;;;;;4.93;1.98;;;;;;;;;;5064995;28;20049;-85
2023/10/29 11:16:46;;;;;;;4.13;1.75;;;;;;;;;;5069104;28;20526;-84
2023/10/29 11:19:35;;;;;;;3.65;2.00;;;;;;;;;;5057711;28;20017;-84
2023/10/29 11:22:21;;;;;;;3.90;1.88;;;;;;;;;;5071207;28;20583;-83
2023/10/29 11:25:11;;;;;;;4.22;1.85;;;;;;;;;;5064715;28;20052;-86
2023/10/29 11:27:57;;;;;;;3.33;2.00;;;;;;;;;;5056824;28;20024;-84
2023/10/29 11:30:42;;;;;;;5.78;2.17;;;;;;;;;;5065971;28;20490;-83
2023/10/29 11:33:27;;;;;;;4.05;2.03;;;;;;;;;;5073583;28;20772;-83
2023/10/29 11:36:27;;;;;;;4.13;1.80;;;;;;;;;;5074467;28;20042;-83
2023/10/29 11:39:16;;;;;;;3.50;1.88;;;;;;;;;;5072206;28;20534;-84
2023/10/29 11:42:21;;;;;;;3.92;2.00;;;;;;;;;;5067629;28;20489;-87
2023/10/29 11:45:27;;;;;;;4.25;2.38;;;;;;;;;;5059814;28;20035;-84
2023/10/29 11:48:14;;;;;;;2.55;1.75;;;;;;;;;;5058649;28;20461;-85
2023/10/29 11:51:06;;;;;;;5.60;2.00;;;;;;;;;;5074835;28;20020;-84
2023/10/29 11:53:51;;;;;;;7.10;2.20;;;;;;;;;;5074151;28;20024;-85
2023/10/29 11:56:36;;;;;;;5.95;2.03;;;;;;;;;;5069411;28;20127;-83
2023/10/29 11:59:21;;;;;;;4.97;1.77;;;;;;;;;;5063264;28;20478;-86
2023/10/29 12:02:07;;;;;;;5.80;2.00;;;;;;;;;;5068506;28;20608;-84
2023/10/29 12:04:52;;;;;;;6.47;1.88;;;;;;;;;;5071156;28;20031;-84
2023/10/29 12:07:37;;;;;;;2.95;1.98;;;;;;;;;;5073613;28;20081;-83
2023/10/29 12:10:22;;;;;;;4.72;2.28;;;;;;;;;;5067479;28;20017;-84
2023/10/29 12:13:08;;;;;;;4.07;1.33;;;;;;;;;;5069167;28;20054;-83
2023/10/29 12:16:03;;;;;;;4.15;2.00;;;;;;;;;;5068633;28;21244;-84
2023/10/29 12:18:49;;;;;;;5.50;1.63;;;;;;;;;;5069928;28;20031;-84
2023/10/29 12:21:34;;;;;;;4.75;2.15;;;;;;;;;;5070633;28;20085;-84
2023/10/29 12:24:20;;;;;;;3.10;1.20;;;;;;;;;;5073905;28;20034;-85
2023/10/29 12:27:05;;;;;;;9.13;2.75;;;;;;;;;;5067942;28;20036;-83
2023/10/29 12:29:51;;;;;;;6.85;2.42;;;;;;;;;;5074226;28;20081;-84
2023/10/29 12:32:36;;;;;;;3.35;1.40;;;;;;;;;;5085790;28;20073;-84
2023/10/29 12:35:33;;;;;;;3.25;1.50;;;;;;;;;;5073785;28;20028;-83
2023/10/29 12:38:19;;;;;;;2.80;1.10;;;;;;;;;;5065042;28;20028;-84
2023/10/29 12:41:06;;;;;;;3.83;1.00;;;;;;;;;;5071373;28;20080;-84
2023/10/29 12:43:53;;;;;;;1.98;0.95;;;;;;;;;;5060126;28;20378;-83
2023/10/29 12:46:46;;;;;;;3.58;1.13;;;;;;;;;;5054691;28;20028;-85
2023/10/29 12:49:33;;;;;;;4.15;1.17;;;;;;;;;;5073067;28;20031;-84
2023/10/29 12:52:19;;;;;;;2.85;1.02;;;;;;;;;;5053088;28;20039;-84
2023/10/29 12:55:07;;;;;;;7.43;1.20;;;;;;;;;;5073863;28;20024;-84
2023/10/29 12:57:52;;;;;;;3.63;1.33;;;;;;;;;;5064203;28;20050;-84
2023/10/29 13:00:37;;;;;;;3.40;1.33;;;;;;;;;;5073246;28;20058;-83
2023/10/29 13:03:26;;;;;;;3.85;1.02;;;;;;;;;;5070103;28;20537;-85
2023/10/29 13:06:12;;;;;;;2.00;1.00;;;;;;;;;;5069718;28;20051;-84
2023/10/29 13:08:57;;;;;;;2.65;1.00;;;;;;;;;;5073560;28;20036;-84
2023/10/29 13:11:43;;;;;;;2.67;1.30;;;;;;;;;;5066087;28;20533;-84
2023/10/29 13:14:29;;;;;;;2.95;1.00;;;;;;;;;;5070416;28;20472;-85
2023/10/29 13:17:14;;;;;;;1.63;0.90;;;;;;;;;;5066236;28;20036;-83
2023/10/29 13:20:02;;;;;;;1.02;0.70;;;;;;;;;;5069765;28;20033;-84
2023/10/29 13:22:48;;;;;;;3.40;0.98;;;;;;;;;;5076093;28;20031;-81
2023/10/29 13:25:33;;;;;;;2.15;0.88;;;;;;;;;;5068761;28;20086;-83
2023/10/29 13:28:19;;;;;;;4.50;1.70;;;;;;;;;;5062478;28;20389;-84
2023/10/29 13:31:04;;;;;;;1.23;0.80;;;;;;;;;;5076085;28;20103;-83
2023/10/29 13:33:49;;;;;;;2.63;1.13;;;;;;;;;;5053409;28;20100;-84
2023/10/29 13:36:37;;;;;;;1.65;1.15;;;;;;;;;;5069627;28;20024;-83
2023/10/29 13:39:22;;;;;;;1.63;1.10;;;;;;;;;;5075926;28;20095;-84
2023/10/29 13:42:07;;;;;;;4.18;1.40;;;;;;;;;;5079712;28;20031;-82
2023/10/29 13:44:52;;;;;;;4.88;1.48;;;;;;;;;;5070118;28;20060;-81
2023/10/29 13:47:39;;;;;;;3.13;1.42;;;;;;;;;;5071563;28;20024;-83
2023/10/29 13:50:24;;;;;;;6.95;1.70;;;;;;;;;;5056692;28;20415;-82
2023/10/29 13:53:09;;;;;;;10.50;1.48;;;;;;;;;;5069076;28;20475;-84
2023/10/29 13:55:54;;;;;;;3.47;1.50;;;;;;;;;;5075822;28;20034;-83
2023/10/29 13:58:40;;;;;;;4.47;1.48;;;;;;;;;;5070804;28;20020;-83
2023/10/29 14:01:26;;;;;;;4.45;1.60;;;;;;;;;;5070750;28;20016;-82
2023/10/29 14:04:11;;;;;;;4.30;1.40;;;;;;;;;;5069895;28;20078;-83
2023/10/29 14:06:57;;;;;;;4.05;1.17;;;;;;;;;;5062650;28;20063;-82
2023/10/29 14:09:42;;;;;;;1.55;1.08;;;;;;;;;;5074904;28;20123;-82
2023/10/29 14:12:28;;;;;;;3.63;1.20;;;;;;;;;;5066101;28;20048;-83
2023/10/29 14:15:14;;;;;;;4.75;2.05;;;;;;;;;;5073933;28;20027;-83
2023/10/29 14:17:59;;;;;;;3.15;2.08;;;;;;;;;;5065841;28;20032;-83
2023/10/29 14:20:46;;;;;;;4.18;1.60;;;;;;;;;;5070411;28;20024;-82
2023/10/29 14:23:32;;;;;;;5.63;2.08;;;;;;;;;;5064754;28;20097;-83
2023/10/29 14:26:18;;;;;;;4.50;1.67;;;;;;;;;;5062329;28;20029;-81
2023/10/29 14:29:03;;;;;;;2.53;1.10;;;;;;;;;;5072723;28;20058;-82
2023/10/29 14:31:48;;;;;;;2.40;1.10;;;;;;;;;;5093747;28;20036;-81
2023/10/29 14:34:34;;;;;;;3.15;1.27;;;;;;;;;;5062004;28;20098;-81
2023/10/29 14:37:21;;;;;;;2.40;1.23;;;;;;;;;;5070092;28;20081;-83
2023/10/29 14:40:07;;;;;;;2.05;1.17;;;;;;;;;;5062916;28;20029;-82
2023/10/29 14:42:52;;;;;;;2.55;1.17;;;;;;;;;;5065458;28;20049;-81
2023/10/29 14:45:42;;;;;;;2.90;1.35;;;;;;;;;;5074761;28;20046;-82
2023/10/29 14:48:27;;;;;;;7.30;1.30;;;;;;;;;;5068881;28;20024;-83
2023/10/29 14:51:13;;;;;;;4.57;1.02;;;;;;;;;;5062225;28;20043;-82
2023/10/29 14:53:59;;;;;;;3.88;0.88;;;;;;;;;;5063490;28;20040;-83
2023/10/29 14:56:44;;;;;;;3.83;1.10;;;;;;;;;;5057750;28;20032;-82
2023/10/29 14:59:32;;;;;;;5.05;1.20;;;;;;;;;;5069007;28;20039;-83
2023/10/29 15:02:17;;;;;;;8.70;1.88;;;;;;;;;;5074917;28;20031;-82
2023/10/29 15:05:04;;;;;;;9.25;2.20;;;;;;;;;;5075598;28;20024;-83
2023/10/29 15:07:49;;;;;;;3.28;1.60;;;;;;;;;;5076665;28;20042;-83
2023/10/29 15:10:34;;;;;;;5.68;2.00;;;;;;;;;;5052661;28;20485;-83
2023/10/29 15:13:21;;;;;;;4.45;1.83;;;;;;;;;;5071311;28;20075;-83
2023/10/29 15:16:06;;;;;;;3.97;1.40;;;;;;;;;;5069270;28;20060;-82
2023/10/29 15:18:52;;;;;;;3.83;1.65;;;;;;;;;;5071513;28;20026;-84
2023/10/29 15:21:37;;;;;;;6.13;1.60;;;;;;;;;;5074494;28;20023;-83
2023/10/29 15:24:22;;;;;;;5.55;2.47;;;;;;;;;;5061039;28;20028;-83
2023/10/29 15:27:07;;;;;;;7.38;2.45;;;;;;;;;;5070715;28;20039;-83
2023/10/29 15:29:52;;;;;;;6.47;2.42;;;;;;;;;;5069807;28;20045;-83
2023/10/29 15:32:38;;;;;;;6.53;2.80;;;;;;;;;;5082288;28;20090;-83
2023/10/29 15:35:23;;;;;;;9.48;3.53;;;;;;;;;;5067830;28;20085;-83
2023/10/29 15:38:09;;;;;;;9.02;3.75;;;;;;;;;;5058039;28;20024;-83
2023/10/29 15:40:55;;;;;;;8.45;2.75;;;;;;;;;;5066405;28;20029;-82
2023/10/29 15:43:40;;;;;;;4.85;2.38;;;;;;;;;;5073234;28;20031;-82
2023/10/29 15:46:25;;;;;;;7.60;2.50;;;;;;;;;;5071769;28;20028;-82
2023/10/29 15:49:11;;;;;;;8.55;2.80;;;;;;;;;;5068218;28;20033;-82
2023/10/29 15:51:57;;;;;;;10.35;2.15;;;;;;;;;;5067260;28;20482;-82
2023/10/29 15:54:42;;;;;;;8.02;2.60;;;;;;;;;;5071717;28;20101;-82
2023/10/29 15:57:27;;;;;;;9.38;2.92;;;;;;;;;;5072005;28;20113;-82
2023/10/29 16:00:13;;;;;;;9.77;2.28;;;;;;;;;;5064739;28;20032;-82
2023/10/29 16:02:58;;;;;;;6.93;1.67;;;;;;;;;;5064809;28;20564;-83
2023/10/29 16:05:43;;;;;;;8.60;2.15;;;;;;;;;;5068233;28;20039;-83
2023/10/29 16:08:28;;;;;;;3.08;1.60;;;;;;;;;;5072859;28;20069;-82
2023/10/29 16:11:22;;;;;;;7.70;3.17;;;;;;;;;;5078825;28;20101;-82
2023/10/29 16:14:07;;;;;;;3.97;2.10;;;;;;;;;;5068837;28;20467;-82
2023/10/29 16:16:54;;;;;;;5.40;1.98;;;;;;;;;;5071503;28;20043;-82
2023/10/29 16:19:39;;;;;;;4.88;2.20;;;;;;;;;;5058404;28;20020;-82
2023/10/29 16:22:24;;;;;;;4.03;1.80;;;;;;;;;;5070604;28;20030;-82
2023/10/29 16:25:10;;;;;;;7.75;2.83;;;;;;;;;;5073222;28;20071;-85
2023/10/29 16:27:55;;;;;;;9.38;4.07;;;;;;;;;;5064692;28;20016;-81
2023/10/29 16:30:40;;;;;;;9.70;3.10;;;;;;;;;;5072618;28;20119;-82
2023/10/29 16:33:26;;;;;;;8.20;3.38;;;;;;;;;;5066414;28;20485;-83
2023/10/29 16:36:11;;;;;;;6.72;2.95;;;;;;;;;;5067974;28;20093;-84